Ardmore, SD

6:30 PM MST on February 10, 2016 (GMT -0700)
Chadron Municipal | | Change Station
CLOSE
Current Station
Airport
Location: Chadron,
Elevation: 3297 ft
Nearby Weather Stations

Elev 3297 ft 42.84 °N, 103.10 °W | Updated 37 minutes ago

Partly Cloudy
Partly Cloudy
46 °F
Feels Like 43 °F
N
6
Wind Variable Wind from North

Today
High -- | Low -- °F
--% Chance of Precip.
Yesterday
High -- | Low -- °F
Precip. -- in
Pressure 30.13 in
Visibility 10.0 miles
Clouds Clear
Windchill 43 °F
Dew Point 25 °F
Humidity 44%
Rainfall 0.00 in
Snow Depth Not available.
6:59 AM 5:18 PM
Waxing Crescent, 8% visible
METAR KCDR 110053Z AUTO 01005KT 10SM CLR 08/M04 A3005 RMK AO2 SLP201 T00781039
Pressure 30.13 in
Visibility 10.0 miles
Clouds Clear
Windchill 43 °F
Dew Point 25 °F
Humidity 44%
Rainfall 0.00 in
Snow Depth Not available.
6:59 AM 5:18 PM
Waxing Crescent, 8% visible
METAR KCDR 110053Z AUTO 01005KT 10SM CLR 08/M04 A3005 RMK AO2 SLP201 T00781039

10-Day Weather Forecast

Almanac

Astronomy

Feb. 10, 2016 Rise Set
Actual Time
Civil Twilight
Nautical Twilight
Astronomical Twilight
Moon
Length of Visible Light
Length of Day
Tomorrow will be .
, % of the Moon is Illuminated

Today's Extremes

State Highs State Lows

Community

WunderPhotos

Upload Photos

1,891,963 photos uploaded!

WunderBlog® & News

Nearby

Air Quality

  Air Quality AQ Index Pollutant
Not available.

Snow Depth

Station Depth Elevation

Earthquake Activity

City Distance Mag. Time & Date
Minimum magnitude displayed is 2.5.

Coastal Water Temperatures

Place Temperature

Stations

Nearby Weather Stations

Station Location Temp. Windchill Dew Point Humidity Wind Precip. Elev Updated Type
                   

Watches & Warnings

There are currently no watches in effect.